Time;durP1;ratioP1;P1;durP2;ratioP2;P2;SDS_P1;SDS_P2;PMS_P1;PMS_P2;Temp;Humidity;BMP_temperature;BMP_pressure;BME280_temperature;BME280_humidity;BME280_pressure;Samples;Min_cycle;Max_cycle;Signal;HPM_P1;HPM_P2
2021/11/27 00:01:07;;;;;;;397.63;380.87;;;4.50;99.90;;;;;;4390911;32;20247;-62
2021/11/27 00:03:34;;;;;;;402.73;385.47;;;4.50;99.90;;;;;;4390523;32;20171;-62
2021/11/27 00:06:01;;;;;;;396.63;379.93;;;4.60;99.90;;;;;;4391476;32;20161;-61
2021/11/27 00:08:28;;;;;;;393.70;377.23;;;4.40;99.90;;;;;;4392258;32;20160;-62
2021/11/27 00:10:58;;;;;;;389.60;373.23;;;4.30;99.90;;;;;;4391029;32;20200;-61
2021/11/27 00:13:26;;;;;;;401.83;385.10;;;4.20;99.90;;;;;;4390280;32;20510;-61
2021/11/27 00:15:54;;;;;;;392.53;376.10;;;4.10;99.90;;;;;;4391115;32;20167;-61
2021/11/27 00:18:22;;;;;;;388.40;372.40;;;4.10;99.90;;;;;;4392713;32;20175;-62
2021/11/27 00:20:51;;;;;;;406.20;389.43;;;4.20;99.90;;;;;;4390951;32;20150;-61
2021/11/27 00:23:18;;;;;;;391.50;375.37;;;4.10;99.90;;;;;;4392433;32;20172;-62
2021/11/27 00:25:45;;;;;;;389.27;373.07;;;4.00;99.90;;;;;;4390754;32;20183;-61
2021/11/27 00:28:14;;;;;;;393.03;376.40;;;4.00;99.90;;;;;;4387400;32;20215;-62
2021/11/27 00:30:42;;;;;;;419.67;402.00;;;3.90;99.90;;;;;;4390837;32;20185;-61
2021/11/27 00:33:09;;;;;;;402.03;384.70;;;3.90;99.90;;;;;;4388788;32;20217;-61
2021/11/27 00:35:36;;;;;;;398.03;381.40;;;3.90;99.90;;;;;;4388537;32;20248;-62
2021/11/27 00:38:06;;;;;;;390.33;373.30;;;3.90;99.90;;;;;;4389879;32;20198;-62
2021/11/27 00:40:35;;;;;;;407.20;390.17;;;3.80;99.90;;;;;;4391996;32;20224;-62
2021/11/27 00:43:02;;;;;;;416.43;398.57;;;3.70;99.90;;;;;;4386646;32;20172;-61
2021/11/27 00:45:31;;;;;;;399.43;382.67;;;3.80;99.90;;;;;;4390479;32;20155;-61
2021/11/27 00:47:59;;;;;;;393.33;376.87;;;3.80;99.90;;;;;;4388753;32;20218;-61
2021/11/27 00:50:44;;;;;;;386.37;369.93;;;3.80;99.90;;;;;;4390777;32;20156;-61
2021/11/27 00:53:11;;;;;;;408.43;391.07;;;3.80;99.90;;;;;;4390853;32;20184;-62
2021/11/27 00:55:38;;;;;;;382.90;366.80;;;3.90;99.90;;;;;;4391795;32;20161;-62
2021/11/27 00:58:05;;;;;;;396.13;379.50;;;3.80;99.90;;;;;;4391180;32;20453;-62
2021/11/27 01:00:37;;;;;;;393.77;377.33;;;3.90;99.90;;;;;;4390176;32;20180;-61
2021/11/27 01:03:06;;;;;;;397.27;380.50;;;3.90;99.90;;;;;;4390050;32;20216;-61
2021/11/27 01:05:34;;;;;;;411.33;394.17;;;4.00;99.90;;;;;;4389832;32;20592;-61
2021/11/27 01:08:01;;;;;;;404.30;387.17;;;4.00;99.90;;;;;;4391525;32;20156;-62
2021/11/27 01:10:31;;;;;;;388.97;372.27;;;4.00;99.90;;;;;;4390999;32;20169;-62
2021/11/27 01:12:58;;;;;;;382.43;366.70;;;4.00;99.90;;;;;;4389992;32;20153;-61
2021/11/27 01:15:28;;;;;;;404.20;386.87;;;4.00;99.90;;;;;;4390114;32;20158;-61
2021/11/27 01:17:58;;;;;;;418.23;400.67;;;4.10;99.90;;;;;;4391950;32;20157;-61
2021/11/27 01:20:28;;;;;;;431.07;412.60;;;4.10;99.90;;;;;;4384213;32;20228;-60
2021/11/27 01:22:56;;;;;;;402.67;385.17;;;4.20;99.90;;;;;;4390032;32;20219;-61
2021/11/27 01:25:24;;;;;;;393.43;377.13;;;4.20;99.90;;;;;;4391361;32;20543;-61
2021/11/27 01:27:50;;;;;;;404.27;387.03;;;4.20;99.90;;;;;;4389852;32;20183;-61
2021/11/27 01:30:19;;;;;;;396.37;379.80;;;4.20;99.90;;;;;;4389462;32;20190;-61
2021/11/27 01:32:46;;;;;;;413.77;396.33;;;4.20;99.90;;;;;;4390276;32;20215;-61
2021/11/27 01:35:15;;;;;;;397.97;381.33;;;4.20;99.90;;;;;;4388328;32;20155;-61
2021/11/27 01:37:42;;;;;;;419.97;402.13;;;4.20;99.90;;;;;;4389416;32;20216;-61
2021/11/27 01:40:13;;;;;;;414.50;396.47;;;4.20;99.90;;;;;;4384395;32;20164;-61
2021/11/27 01:42:42;;;;;;;402.73;385.83;;;4.20;99.90;;;;;;4390351;32;20231;-61
2021/11/27 01:45:11;;;;;;;406.30;388.77;;;4.20;99.90;;;;;;4388891;32;20152;-61
2021/11/27 01:47:38;;;;;;;419.43;401.73;;;4.20;99.90;;;;;;4379807;32;20184;-61
2021/11/27 01:50:07;;;;;;;386.63;370.47;;;4.20;99.90;;;;;;4387713;32;20175;-61
2021/11/27 01:52:35;;;;;;;398.33;381.50;;;4.20;99.90;;;;;;4390889;32;20203;-61
2021/11/27 01:55:02;;;;;;;398.33;381.50;;;4.10;99.90;;;;;;4386780;32;20182;-61
2021/11/27 01:57:29;;;;;;;393.03;376.60;;;4.10;99.90;;;;;;4386016;32;20207;-62
2021/11/27 01:59:58;;;;;;;393.97;377.40;;;4.10;99.90;;;;;;4389504;32;20247;-60
2021/11/27 02:02:27;;;;;;;390.20;373.70;;;4.00;99.90;;;;;;4389767;32;20194;-61
2021/11/27 02:04:54;;;;;;;404.40;387.30;;;4.10;99.90;;;;;;4389002;32;20194;-61
2021/11/27 02:07:21;;;;;;;409.40;392.10;;;4.10;99.90;;;;;;4389717;32;20168;-61
2021/11/27 02:09:51;;;;;;;412.57;395.13;;;4.10;99.90;;;;;;4391174;32;20522;-61
2021/11/27 02:12:18;;;;;;;391.77;375.23;;;4.20;99.90;;;;;;4390021;32;20180;-61
2021/11/27 02:14:45;;;;;;;415.50;397.57;;;4.20;99.90;;;;;;4389926;32;20206;-61
2021/11/27 02:17:13;;;;;;;383.43;367.23;;;4.20;99.90;;;;;;4390199;32;20175;-61
2021/11/27 02:19:40;;;;;;;383.77;367.80;;;4.20;99.90;;;;;;4390196;32;20170;-60
2021/11/27 02:22:09;;;;;;;406.00;388.90;;;4.30;99.90;;;;;;4390477;32;20165;-61
2021/11/27 02:24:36;;;;;;;425.93;407.90;;;4.30;99.90;;;;;;4389011;32;20243;-61
2021/11/27 02:27:03;;;;;;;413.20;395.83;;;4.30;99.90;;;;;;4391798;32;20589;-61
2021/11/27 02:29:34;;;;;;;406.50;389.47;;;4.20;99.90;;;;;;4391647;32;20164;-61
2021/11/27 02:32:02;;;;;;;408.33;390.87;;;4.30;99.90;;;;;;4391297;32;20174;-61
2021/11/27 02:34:29;;;;;;;402.67;385.83;;;4.30;99.90;;;;;;4391442;32;20179;-61
2021/11/27 02:37:00;;;;;;;417.90;400.17;;;4.30;99.90;;;;;;4392121;32;20211;-61
2021/11/27 02:39:31;;;;;;;406.20;388.90;;;4.30;99.90;;;;;;4392555;32;20212;-61
2021/11/27 02:41:58;;;;;;;406.80;389.80;;;4.30;99.90;;;;;;4392098;32;20180;-60
2021/11/27 02:44:27;;;;;;;402.83;386.03;;;4.30;99.90;;;;;;4392120;32;20183;-61
2021/11/27 02:46:55;;;;;;;403.80;387.00;;;4.30;99.90;;;;;;4391567;32;20546;-61
2021/11/27 02:49:22;;;;;;;416.03;398.27;;;4.20;99.90;;;;;;4393023;32;20530;-61
2021/11/27 02:51:50;;;;;;;394.23;377.70;;;4.20;99.90;;;;;;4391299;32;20208;-61
2021/11/27 02:54:18;;;;;;;405.03;387.97;;;4.20;99.90;;;;;;4393825;32;20198;-61
2021/11/27 02:56:46;;;;;;;400.13;383.17;;;4.20;99.90;;;;;;4393242;32;20512;-61
2021/11/27 02:59:16;;;;;;;414.07;396.33;;;4.10;99.90;;;;;;4391758;32;20162;-61
2021/11/27 03:01:44;;;;;;;419.77;402.20;;;4.10;99.90;;;;;;4393538;32;20191;-61
2021/11/27 03:04:14;;;;;;;399.03;381.83;;;4.10;99.90;;;;;;4393041;32;20182;-60
2021/11/27 03:06:42;;;;;;;394.23;377.47;;;4.00;99.90;;;;;;4391534;32;20223;-60
2021/11/27 03:09:10;;;;;;;388.53;372.47;;;4.10;99.90;;;;;;4391587;32;20160;-61
2021/11/27 03:11:37;;;;;;;398.83;382.27;;;4.10;99.90;;;;;;4391905;32;20168;-61
2021/11/27 03:14:06;;;;;;;414.13;396.93;;;4.00;99.90;;;;;;4391758;32;20194;-61
2021/11/27 03:16:33;;;;;;;405.17;388.33;;;3.90;99.90;;;;;;4392341;32;20180;-61
2021/11/27 03:19:01;;;;;;;415.30;397.33;;;3.90;99.90;;;;;;4392516;32;20152;-61
2021/11/27 03:21:28;;;;;;;405.07;387.93;;;3.90;99.90;;;;;;4392156;32;20220;-61
2021/11/27 03:23:55;;;;;;;396.97;380.27;;;3.90;99.90;;;;;;4393244;32;20197;-61
2021/11/27 03:26:22;;;;;;;410.87;393.43;;;3.90;99.90;;;;;;4393621;32;20182;-60
2021/11/27 03:28:48;;;;;;;417.80;399.70;;;3.80;99.90;;;;;;4392015;32;20185;-61
2021/11/27 03:31:18;;;;;;;422.77;405.00;;;3.80;99.90;;;;;;4391624;32;20209;-61
2021/11/27 03:33:45;;;;;;;408.30;391.07;;;3.90;99.90;;;;;;4390922;32;20190;-61
2021/11/27 03:36:12;;;;;;;394.17;377.77;;;3.90;99.90;;;;;;4388030;32;20163;-60
2021/11/27 03:38:38;;;;;;;395.10;378.03;;;4.00;99.90;;;;;;4391642;32;20216;-61
2021/11/27 03:41:06;;;;;;;416.90;399.30;;;4.00;99.90;;;;;;4391674;32;20217;-60
2021/11/27 03:43:33;;;;;;;403.27;386.27;;;4.00;99.90;;;;;;4390978;32;20207;-61
2021/11/27 03:46:01;;;;;;;421.73;403.90;;;4.10;99.90;;;;;;4393136;32;20213;-61
2021/11/27 03:48:34;;;;;;;431.63;412.57;;;3.90;99.90;;;;;;4391846;32;20188;-61
2021/11/27 03:51:03;;;;;;;402.37;385.30;;;3.90;99.90;;;;;;4390788;32;20172;-61
2021/11/27 03:53:32;;;;;;;421.80;403.30;;;3.80;99.90;;;;;;4388256;32;20176;-61
2021/11/27 03:56:05;;;;;;;417.60;400.13;;;3.80;99.90;;;;;;4376447;32;20149;-62
2021/11/27 03:58:32;;;;;;;406.70;389.30;;;3.80;99.90;;;;;;4386200;32;20609;-60
2021/11/27 04:01:01;;;;;;;401.63;384.67;;;3.80;99.90;;;;;;4389888;32;20168;-60
2021/11/27 04:03:29;;;;;;;400.27;383.63;;;3.90;99.90;;;;;;4390999;32;20177;-60
2021/11/27 04:06:00;;;;;;;393.73;377.47;;;3.90;99.90;;;;;;4390872;32;20228;-61
2021/11/27 04:08:28;;;;;;;407.00;389.83;;;3.80;99.90;;;;;;4390487;32;20250;-61
2021/11/27 04:10:55;;;;;;;422.77;405.07;;;3.70;99.90;;;;;;4379785;32;20176;-61
2021/11/27 04:13:23;;;;;;;416.03;398.57;;;3.80;99.90;;;;;;4392079;32;20164;-60
2021/11/27 04:15:50;;;;;;;411.73;394.33;;;3.70;99.90;;;;;;4383731;32;20191;-61
2021/11/27 04:18:18;;;;;;;412.67;395.07;;;3.70;99.90;;;;;;4387012;32;20250;-60
2021/11/27 04:20:45;;;;;;;404.57;387.80;;;3.80;99.90;;;;;;4391203;32;20277;-60
2021/11/27 04:23:14;;;;;;;418.90;401.30;;;3.80;99.90;;;;;;4389821;32;20194;-60
2021/11/27 04:25:41;;;;;;;419.07;401.23;;;3.70;99.90;;;;;;4392224;32;20641;-62
2021/11/27 04:28:08;;;;;;;404.67;387.53;;;3.70;99.90;;;;;;4390160;32;20694;-61
2021/11/27 04:30:37;;;;;;;420.03;402.10;;;3.70;99.90;;;;;;4390249;32;20180;-61
2021/11/27 04:33:04;;;;;;;416.33;398.80;;;3.70;99.90;;;;;;4390664;32;20179;-61
2021/11/27 04:35:34;;;;;;;401.13;384.50;;;3.70;99.90;;;;;;4390569;32;20179;-61
2021/11/27 04:38:01;;;;;;;408.63;391.37;;;3.60;99.90;;;;;;4390717;32;20174;-61
2021/11/27 04:40:30;;;;;;;394.97;378.73;;;3.60;99.90;;;;;;4390425;32;20180;-61
2021/11/27 04:42:58;;;;;;;410.07;392.80;;;3.60;99.90;;;;;;4330614;32;1981475;-61
2021/11/27 04:45:25;;;;;;;403.77;387.10;;;3.60;99.90;;;;;;4385916;32;20155;-61
2021/11/27 04:47:52;;;;;;;413.60;396.40;;;3.50;99.90;;;;;;4377991;32;20148;-60
2021/11/27 04:50:20;;;;;;;401.20;384.27;;;3.50;99.90;;;;;;4392340;32;20214;-62
2021/11/27 04:52:49;;;;;;;407.07;389.97;;;3.50;99.90;;;;;;4391682;32;20179;-60
2021/11/27 04:55:18;;;;;;;408.83;391.60;;;3.60;99.90;;;;;;4392059;32;20238;-61
2021/11/27 04:57:46;;;;;;;415.73;398.40;;;3.50;99.90;;;;;;4392266;32;20199;-60
2021/11/27 05:00:18;;;;;;;408.33;391.30;;;3.50;99.90;;;;;;4390510;32;20537;-61
2021/11/27 05:02:45;;;;;;;413.87;395.87;;;3.50;99.90;;;;;;4390870;32;20167;-62
2021/11/27 05:05:13;;;;;;;410.23;392.93;;;3.60;99.90;;;;;;4391687;32;20218;-61
2021/11/27 05:07:40;;;;;;;399.83;383.17;;;3.60;99.90;;;;;;4390537;32;20203;-61
2021/11/27 05:10:08;;;;;;;418.17;399.83;;;3.60;99.90;;;;;;4390367;32;20165;-61
2021/11/27 05:12:34;;;;;;;414.73;397.07;;;3.70;99.90;;;;;;4392041;32;20157;-61
2021/11/27 05:15:03;;;;;;;417.90;400.47;;;3.80;99.90;;;;;;4390803;32;20152;-62
2021/11/27 05:17:30;;;;;;;405.53;388.63;;;3.90;99.90;;;;;;4389355;32;20228;-61
2021/11/27 05:19:57;;;;;;;399.60;383.07;;;3.90;99.90;;;;;;4391087;32;20604;-61
2021/11/27 05:22:24;;;;;;;392.97;376.40;;;3.90;99.90;;;;;;4389659;32;20155;-61
2021/11/27 05:24:51;;;;;;;391.73;375.60;;;3.90;99.90;;;;;;4392161;32;20136;-61
2021/11/27 05:27:20;;;;;;;395.90;379.47;;;3.90;99.90;;;;;;4389454;32;20202;-62
2021/11/27 05:29:48;;;;;;;399.07;382.57;;;4.00;99.90;;;;;;4391171;32;20235;-61
2021/11/27 05:32:24;;;;;;;406.80;389.87;;;3.90;99.90;;;;;;4386376;32;20450;-62
2021/11/27 05:34:51;;;;;;;403.63;386.73;;;4.00;99.90;;;;;;4389341;32;20289;-62
2021/11/27 05:37:18;;;;;;;392.80;376.40;;;4.00;99.90;;;;;;4388050;32;20191;-62
2021/11/27 05:39:46;;;;;;;398.03;381.70;;;4.00;99.90;;;;;;4391400;32;20171;-62
2021/11/27 05:42:15;;;;;;;398.33;381.70;;;3.90;99.90;;;;;;4391057;32;20158;-62
2021/11/27 05:44:43;;;;;;;392.70;376.43;;;3.90;99.90;;;;;;4375396;32;20152;-62
2021/11/27 05:47:10;;;;;;;392.97;376.37;;;3.90;99.90;;;;;;4381102;32;20164;-62
2021/11/27 05:49:38;;;;;;;397.43;380.80;;;3.90;99.90;;;;;;4389979;32;20183;-62
2021/11/27 05:52:06;;;;;;;405.67;388.73;;;4.00;99.90;;;;;;4385862;32;20178;-61
2021/11/27 05:54:33;;;;;;;414.60;397.00;;;4.00;99.90;;;;;;4388241;32;20220;-61
2021/11/27 05:57:00;;;;;;;380.57;364.87;;;3.90;99.90;;;;;;4385132;32;20233;-61
2021/11/27 05:59:27;;;;;;;384.50;368.63;;;3.90;99.90;;;;;;4389933;32;20219;-61
2021/11/27 06:01:54;;;;;;;393.80;377.63;;;3.80;99.90;;;;;;4391395;32;20589;-62
2021/11/27 06:04:21;;;;;;;376.50;360.67;;;3.70;99.90;;;;;;4392683;32;20188;-60
2021/11/27 06:06:49;;;;;;;369.43;354.20;;;3.60;99.90;;;;;;4391980;32;20261;-61
2021/11/27 06:09:16;;;;;;;389.00;372.83;;;3.50;99.90;;;;;;4392184;32;20150;-62
2021/11/27 06:11:44;;;;;;;377.70;361.97;;;3.50;99.90;;;;;;4387242;32;20213;-61
2021/11/27 06:14:11;;;;;;;385.77;369.70;;;3.40;99.90;;;;;;4388626;32;20146;-62
2021/11/27 06:16:37;;;;;;;373.13;357.87;;;3.30;99.90;;;;;;4394671;32;20216;-62
2021/11/27 06:19:05;;;;;;;376.53;360.93;;;3.20;99.90;;;;;;4392138;32;20163;-62
2021/11/27 06:21:32;;;;;;;370.23;355.00;;;3.10;99.90;;;;;;4393898;32;20555;-62
2021/11/27 06:24:00;;;;;;;376.53;360.90;;;3.10;99.90;;;;;;4393014;32;20136;-62
2021/11/27 06:26:27;;;;;;;398.90;382.23;;;3.20;99.90;;;;;;4391675;32;20214;-62
2021/11/27 06:28:54;;;;;;;402.07;385.03;;;3.20;99.90;;;;;;4393622;32;20177;-62
2021/11/27 06:31:21;;;;;;;379.80;364.00;;;3.30;99.90;;;;;;4391748;32;20493;-63
2021/11/27 06:33:48;;;;;;;394.37;377.87;;;3.20;99.90;;;;;;4393706;32;20653;-62
2021/11/27 06:36:15;;;;;;;401.93;385.30;;;3.20;99.90;;;;;;4391402;32;20227;-62
2021/11/27 06:38:42;;;;;;;409.53;392.33;;;3.30;99.90;;;;;;4391861;32;20212;-61
2021/11/27 06:41:10;;;;;;;404.23;386.80;;;3.40;99.90;;;;;;4392816;32;20187;-61
2021/11/27 06:43:37;;;;;;;403.63;386.70;;;3.30;99.90;;;;;;4386943;32;20168;-61
2021/11/27 06:46:04;;;;;;;404.57;387.63;;;3.30;99.90;;;;;;4380883;32;20223;-61
2021/11/27 06:48:31;;;;;;;409.90;392.20;;;3.40;99.90;;;;;;4388193;32;20223;-61
2021/11/27 06:50:58;;;;;;;407.07;389.90;;;3.30;99.90;;;;;;4391826;32;20639;-61
2021/11/27 06:53:25;;;;;;;403.17;385.90;;;3.30;99.90;;;;;;4391683;32;20160;-62
2021/11/27 06:55:52;;;;;;;399.77;382.97;;;3.30;99.90;;;;;;4393669;32;20168;-62
2021/11/27 06:58:20;;;;;;;394.20;377.47;;;3.30;99.90;;;;;;4383171;32;20238;-62
2021/11/27 07:00:47;;;;;;;396.73;379.97;;;3.30;99.90;;;;;;4390274;32;20483;-61
2021/11/27 07:03:13;;;;;;;396.97;380.27;;;3.30;99.90;;;;;;4393735;32;20198;-61
2021/11/27 07:05:40;;;;;;;375.07;359.03;;;3.30;99.90;;;;;;4393490;32;20477;-63
2021/11/27 07:08:08;;;;;;;392.40;375.97;;;3.30;99.90;;;;;;4391579;32;20225;-61
2021/11/27 07:10:35;;;;;;;397.60;380.57;;;3.20;99.90;;;;;;4393315;32;20207;-61
2021/11/27 07:13:03;;;;;;;413.83;396.27;;;3.20;99.90;;;;;;4391708;32;20144;-62
2021/11/27 07:15:31;;;;;;;405.57;388.63;;;3.20;99.90;;;;;;4391740;32;20204;-62
2021/11/27 07:17:58;;;;;;;407.93;390.27;;;3.20;99.90;;;;;;4390582;32;20244;-63
2021/11/27 07:20:25;;;;;;;410.60;393.13;;;3.30;99.90;;;;;;4391879;32;20330;-61
2021/11/27 07:22:55;;;;;;;405.53;388.37;;;3.30;99.90;;;;;;4388834;32;20165;-62
2021/11/27 07:25:22;;;;;;;417.63;400.00;;;3.30;99.90;;;;;;4392154;32;20593;-61
2021/11/27 07:27:49;;;;;;;411.87;394.57;;;3.30;99.90;;;;;;4386965;32;20686;-61
2021/11/27 07:30:16;;;;;;;412.77;394.97;;;3.30;99.90;;;;;;4392254;32;20236;-61
2021/11/27 07:32:44;;;;;;;408.07;390.83;;;3.20;99.90;;;;;;4391033;32;20531;-61
2021/11/27 07:35:10;;;;;;;419.70;401.83;;;3.30;99.90;;;;;;4389572;32;20183;-62
2021/11/27 07:37:37;;;;;;;401.50;384.53;;;3.40;99.90;;;;;;4391566;32;20157;-62
2021/11/27 07:40:05;;;;;;;413.13;395.70;;;3.40;99.90;;;;;;4390379;32;20159;-61
2021/11/27 07:42:32;;;;;;;422.97;404.77;;;3.40;99.90;;;;;;4391920;32;20537;-62
2021/11/27 07:44:59;;;;;;;426.47;408.30;;;3.40;99.90;;;;;;4389149;32;20249;-62
2021/11/27 07:47:26;;;;;;;413.33;395.60;;;3.50;99.90;;;;;;4388724;32;20164;-62
2021/11/27 07:49:54;;;;;;;407.43;390.30;;;3.40;99.90;;;;;;4390434;32;20174;-62
2021/11/27 07:52:21;;;;;;;398.97;381.57;;;3.50;99.90;;;;;;4389223;32;20252;-62
2021/11/27 07:54:49;;;;;;;398.83;382.03;;;3.40;99.90;;;;;;4391162;32;20153;-61
2021/11/27 07:57:16;;;;;;;392.40;375.57;;;3.30;99.90;;;;;;4389173;32;20191;-61
2021/11/27 07:59:42;;;;;;;422.30;404.60;;;3.40;99.90;;;;;;4389388;32;20170;-61
2021/11/27 08:02:09;;;;;;;411.60;394.07;;;3.40;99.90;;;;;;4391728;32;20175;-60
2021/11/27 08:04:36;;;;;;;405.77;388.57;;;3.40;99.90;;;;;;4388253;32;20227;-60
2021/11/27 08:07:04;;;;;;;417.27;399.33;;;3.40;99.90;;;;;;4390681;32;20228;-61
2021/11/27 08:09:31;;;;;;;403.47;386.47;;;3.40;99.90;;;;;;4391359;32;20507;-61
2021/11/27 08:11:58;;;;;;;409.27;391.87;;;3.40;99.90;;;;;;4391959;32;20143;-61
2021/11/27 08:14:31;;;;;;;413.17;395.37;;;3.30;99.90;;;;;;4389545;32;20166;-61
2021/11/27 08:16:58;;;;;;;413.07;395.50;;;3.30;99.90;;;;;;4387860;32;20144;-61
2021/11/27 08:19:25;;;;;;;435.23;416.60;;;3.30;99.90;;;;;;4389998;32;20475;-62
2021/11/27 08:21:51;;;;;;;415.53;397.97;;;3.40;99.90;;;;;;4389864;32;20247;-62
2021/11/27 08:24:20;;;;;;;413.53;396.07;;;3.30;99.90;;;;;;4389503;32;20155;-62
2021/11/27 08:26:47;;;;;;;413.70;396.00;;;3.40;99.90;;;;;;4388255;32;20187;-61
2021/11/27 08:29:14;;;;;;;401.87;385.00;;;3.30;99.90;;;;;;4391068;32;20245;-62
2021/11/27 08:31:41;;;;;;;397.57;381.00;;;3.30;99.90;;;;;;4391742;32;20231;-61
2021/11/27 08:34:08;;;;;;;394.93;378.47;;;3.20;99.90;;;;;;4388690;32;20207;-62
2021/11/27 08:36:35;;;;;;;400.00;383.43;;;3.20;99.90;;;;;;4388167;32;20150;-62
2021/11/27 08:39:02;;;;;;;395.40;379.00;;;3.30;99.90;;;;;;4389265;32;20246;-61
2021/11/27 08:41:30;;;;;;;391.00;374.73;;;3.30;99.90;;;;;;4391047;32;20601;-62
2021/11/27 08:43:57;;;;;;;398.87;382.17;;;3.30;99.90;;;;;;4389819;32;20171;-60
2021/11/27 08:46:24;;;;;;;399.90;383.33;;;3.30;99.90;;;;;;4389480;32;20164;-62
2021/11/27 08:48:51;;;;;;;399.27;382.50;;;3.30;99.90;;;;;;4388421;32;20187;-61
2021/11/27 08:51:17;;;;;;;413.20;395.90;;;3.30;99.90;;;;;;4391676;32;20191;-61
2021/11/27 08:53:45;;;;;;;402.87;386.03;;;3.40;99.90;;;;;;4389966;32;20565;-62
2021/11/27 08:56:11;;;;;;;399.13;382.60;;;3.30;99.90;;;;;;4390355;32;20560;-62
2021/11/27 08:58:42;;;;;;;402.93;386.30;;;3.40;99.90;;;;;;4385220;32;20170;-62
2021/11/27 09:01:12;;;;;;;406.03;388.70;;;3.30;99.90;;;;;;4389005;32;20302;-64
2021/11/27 09:03:39;;;;;;;393.13;376.80;;;3.30;99.90;;;;;;4387966;32;20622;-63
2021/11/27 09:06:07;;;;;;;393.53;377.07;;;3.30;99.90;;;;;;4388200;32;20644;-62
2021/11/27 09:08:35;;;;;;;405.70;388.53;;;3.30;99.90;;;;;;4387731;32;20168;-62
2021/11/27 09:11:02;;;;;;;399.87;383.23;;;3.30;99.90;;;;;;4388910;32;20264;-63
2021/11/27 09:13:29;;;;;;;402.00;385.30;;;3.20;99.90;;;;;;4389872;32;20237;-62
2021/11/27 09:15:58;;;;;;;395.27;378.53;;;3.20;99.90;;;;;;4389596;32;20161;-63
2021/11/27 09:18:25;;;;;;;401.67;384.90;;;3.20;99.90;;;;;;4387175;32;20171;-61
2021/11/27 09:20:52;;;;;;;391.50;375.10;;;3.20;99.90;;;;;;4391076;32;20171;-60
2021/11/27 09:23:18;;;;;;;396.60;379.87;;;3.20;99.90;;;;;;4390422;32;20165;-61
2021/11/27 09:25:45;;;;;;;396.50;380.03;;;3.20;99.90;;;;;;4391126;32;20154;-61
2021/11/27 09:28:12;;;;;;;392.93;376.60;;;3.30;99.90;;;;;;4389757;32;20151;-62
2021/11/27 09:30:39;;;;;;;405.57;388.43;;;3.20;99.90;;;;;;4389416;32;20173;-61
2021/11/27 09:33:07;;;;;;;404.03;387.20;;;3.30;99.90;;;;;;4391003;32;20172;-62
2021/11/27 09:35:34;;;;;;;402.10;385.30;;;3.20;99.90;;;;;;4389144;32;20144;-62
2021/11/27 09:38:01;;;;;;;397.37;380.53;;;3.30;99.90;;;;;;4392034;32;20191;-62
2021/11/27 09:40:32;;;;;;;398.53;381.97;;;3.30;99.90;;;;;;4394393;32;20241;-62
2021/11/27 09:43:00;;;;;;;394.67;378.10;;;3.30;99.90;;;;;;4390576;32;20149;-62
2021/11/27 09:45:27;;;;;;;398.47;381.70;;;3.40;99.90;;;;;;4392684;32;20158;-61
2021/11/27 09:48:26;;;;;;;398.67;381.93;;;3.40;99.90;;;;;;4389346;32;20186;-62
2021/11/27 09:50:53;;;;;;;389.80;373.27;;;3.50;99.90;;;;;;4343305;33;20633;-62
2021/11/27 09:53:22;;;;;;;395.10;378.40;;;3.50;99.90;;;;;;4344313;33;20157;-62
2021/11/27 09:55:56;;;;;;;403.97;386.67;;;3.50;99.90;;;;;;4346552;33;20743;-63
2021/11/27 09:58:38;;;;;;;397.87;380.87;;;3.50;99.90;;;;;;4345711;33;20182;-62
2021/11/27 10:01:11;;;;;;;403.60;386.50;;;3.50;99.90;;;;;;4340847;33;20225;-63
2021/11/27 10:03:48;;;;;;;397.07;379.57;;;3.40;99.90;;;;;;4340837;33;20192;-62
2021/11/27 10:06:26;;;;;;;394.43;377.30;;;3.40;99.90;;;;;;4337889;33;20174;-63
2021/11/27 10:08:53;;;;;;;406.27;388.33;;;3.50;99.90;;;;;;4346601;33;20157;-63
2021/11/27 10:11:23;;;;;;;395.97;378.57;;;3.50;99.90;;;;;;4347334;33;20655;-62
2021/11/27 10:13:52;;;;;;;393.57;376.33;;;3.50;99.90;;;;;;4345419;33;20241;-62
2021/11/27 10:16:22;;;;;;;396.27;379.03;;;3.50;99.90;;;;;;4345911;33;20175;-62
2021/11/27 10:19:19;;;;;;;402.03;384.03;;;3.60;99.90;;;;;;4347324;33;20170;-62
2021/11/27 10:22:01;;;;;;;396.93;379.70;;;3.60;99.90;;;;;;4346641;33;20162;-62
2021/11/27 10:24:47;;;;;;;421.80;403.40;;;3.50;99.90;;;;;;4344548;33;20476;-63
2021/11/27 10:27:22;;;;;;;396.07;378.13;;;3.50;99.90;;;;;;4353473;32;20152;-64
2021/11/27 10:30:04;;;;;;;411.77;393.20;;;3.60;99.90;;;;;;4392687;32;20569;-63
2021/11/27 10:32:41;;;;;;;407.43;389.23;;;3.70;99.90;;;;;;4392701;32;20140;-63
2021/11/27 10:35:20;;;;;;;399.43;381.03;;;3.80;99.90;;;;;;4391740;32;20156;-62
2021/11/27 10:37:56;;;;;;;390.27;372.10;;;3.90;99.90;;;;;;4377868;32;20621;-63
2021/11/27 10:40:26;;;;;;;388.87;371.17;;;4.00;99.90;;;;;;4392904;32;20193;-63
2021/11/27 10:43:05;;;;;;;399.50;380.97;;;4.10;99.90;;;;;;4388507;32;20144;-62
2021/11/27 10:45:48;;;;;;;395.27;376.83;;;4.20;99.90;;;;;;4388520;32;20210;-62
2021/11/27 10:48:24;;;;;;;413.93;394.23;;;4.30;99.90;;;;;;4391192;32;20155;-63
2021/11/27 10:50:59;;;;;;;419.87;399.07;;;4.30;99.90;;;;;;4376208;32;20649;-63
2021/11/27 10:53:31;;;;;;;396.70;377.83;;;4.20;99.90;;;;;;4376078;32;20671;-63
2021/11/27 10:56:08;;;;;;;398.57;379.63;;;4.30;99.90;;;;;;4375067;32;20632;-62
2021/11/27 10:59:03;;;;;;;430.20;410.07;;;4.30;99.90;;;;;;4370629;32;20925;-63
2021/11/27 11:02:08;;;;;;;407.33;387.83;;;4.30;99.90;;;;;;4375512;32;20537;-62
2021/11/27 11:04:37;;;;;;;429.87;408.83;;;4.30;99.90;;;;;;4375638;32;20171;-62
2021/11/27 11:07:25;;;;;;;430.63;410.07;;;4.30;99.90;;;;;;4376542;32;20166;-62
2021/11/27 11:10:14;;;;;;;418.77;398.10;;;4.30;99.90;;;;;;4381567;32;20266;-62
2021/11/27 11:12:46;;;;;;;423.87;404.33;;;4.30;99.90;;;;;;4364380;32;20163;-61
2021/11/27 11:15:19;;;;;;;416.07;396.13;;;4.30;99.90;;;;;;4378098;32;20155;-64
2021/11/27 11:18:28;;;;;;;;;;;;;;;;;;;;;
2021/11/27 11:20:57;;;;;;;400.37;381.93;;;4.40;99.90;;;;;;4328553;33;20168;-62
2021/11/27 11:23:43;;;;;;;415.07;395.30;;;4.40;99.90;;;;;;4329432;33;20162;-62
2021/11/27 11:26:14;;;;;;;400.63;382.60;;;4.50;99.90;;;;;;4327428;33;20169;-62
2021/11/27 11:29:05;;;;;;;409.07;390.20;;;4.60;99.90;;;;;;4332727;33;20166;-62
2021/11/27 11:31:42;;;;;;;407.77;389.27;;;4.60;99.90;;;;;;4328945;33;20227;-63
2021/11/27 11:34:16;;;;;;;416.00;396.90;;;4.70;99.90;;;;;;4325225;33;20153;-62
2021/11/27 11:36:44;;;;;;;414.27;395.07;;;4.90;99.90;;;;;;4327461;33;20188;-64
2021/11/27 11:39:36;;;;;;;398.03;379.77;;;5.00;99.90;;;;;;4329924;33;20208;-62
2021/11/27 11:42:07;;;;;;;406.00;387.37;;;5.10;99.90;;;;;;4331199;33;20183;-62
2021/11/27 11:44:43;;;;;;;393.90;375.47;;;5.20;99.90;;;;;;4336596;33;20691;-62
2021/11/27 11:47:11;;;;;;;399.60;381.73;;;5.20;99.90;;;;;;4331119;33;20153;-62
2021/11/27 11:52:42;;;;;;;385.97;368.50;;;5.40;99.90;;;;;;4326192;33;20216;-61
2021/11/27 11:55:29;;;;;;;383.40;366.00;;;5.30;99.90;;;;;;4326788;33;20193;-62
2021/11/27 11:58:01;;;;;;;366.10;350.13;;;5.30;99.90;;;;;;4354164;32;20172;-61
2021/11/27 12:00:38;;;;;;;372.00;355.73;;;5.20;99.90;;;;;;4374964;32;20166;-63
2021/11/27 12:03:14;;;;;;;347.40;332.47;;;5.00;99.90;;;;;;4375297;32;20190;-62
2021/11/27 12:06:06;;;;;;;359.30;343.17;;;4.90;99.90;;;;;;4373763;32;20169;-61
2021/11/27 12:09:10;;;;;;;366.47;350.97;;;4.90;99.90;;;;;;4373324;32;20152;-62
2021/11/27 12:12:24;;;;;;;365.03;348.60;;;5.00;99.90;;;;;;4373933;32;20167;-63
2021/11/27 12:15:03;;;;;;;372.27;356.13;;;5.10;99.90;;;;;;4374912;32;20234;-61
2021/11/27 12:17:33;;;;;;;354.50;339.20;;;5.10;99.90;;;;;;4375319;32;20155;-63
2021/11/27 12:20:05;;;;;;;381.10;364.90;;;5.10;99.90;;;;;;4375619;32;20148;-62
2021/11/27 12:22:39;;;;;;;381.57;364.80;;;5.20;99.90;;;;;;4376896;32;20191;-62
2021/11/27 12:25:18;;;;;;;365.70;349.90;;;5.20;99.90;;;;;;4373268;32;20183;-62
2021/11/27 12:28:33;;;;;;;370.13;354.30;;;5.10;99.90;;;;;;4376653;32;20506;-62
2021/11/27 12:31:14;;;;;;;370.83;354.87;;;5.00;99.90;;;;;;4376224;32;20171;-62
2021/11/27 12:33:48;;;;;;;353.70;338.43;;;4.90;99.90;;;;;;4375244;32;20504;-62
2021/11/27 12:36:51;;;;;;;353.33;338.47;;;4.70;99.90;;;;;;4374938;32;20137;-62